Pagrindinis puslapis
METAR-TAF:

METAR-TAF

Oro uostai :

Dijarbakyras, Turkija

platuma: 37-53N, ilguma: 040-11E, Aukštis: 686 m

Dabartinis oras

Ataskaita buvo paskelbta 29 minutes, ne 18:20 UTC
Vėjas 4 kt iš Pietų, svyruoja nuo Pietų/Pietryčių ir Pietvakarių
Temperatūra 11°C
Drėgmė 43%
Slėgis 1015 hPa
Matomumas 10 km arba daugiau
Išsisklaidę debesys ne aukštis 4000 ft

METAR: LTCC 281820Z 19004KT 150V230 9999 SCT040 11/M01 Q1015 NOSIG RMK RWY16 VRB01KT

Laikas: 21:49 (18:49 UTC)

Prognozė

Ataskaita buvo paskelbta 2 valandos ir 9 minutes, ne 16:40 UTC
Prognozė galioja nuo 28 metu 18 UTC su 01 metu 18 UTC
Vėjas 2 kt nuo kintamojo kryptimis
Matomumas 10 km arba daugiau
Mažai debesys ne aukštis 4000 ft
Išsisklaidę debesys ne aukštis 10000 ft
Tapsmas
nuo 01 metu 06 UTC su 01 metu 09 UTC
Vėjas 12 kt iš Šiaurės

TAF: LTCC 281640Z 2818/0118 VRB02KT 9999 FEW040 SCT100 BECMG 0106/0109 35012KT

Orai ataskaitas ir orų prognozės (METAR, TAF).

turimą stotys yra geltonos ir raudonos taškus žemėlapyje.

Perkelti pele per norėdami pamatyti stoties vardą.

Tada spustelėkite, norėdami matyti oro stebėjimo ir prognozės.

Norėdami pakeisti žemėlapį: spustelėkite ant žalios mygtukų su juodo kryžiaus žemyn,; žalią mygtuką su brūkšneliu, jei norite nutolinti; arba žalių rodyklių gretimoms žemėlapius.


METAR-TAF: